Hodge, California
Current Conditions -  °F | °C
As of 12:50 AM on Friday 19 Dec 2014 (Local Time) from KDAG Reporting Station
Clear Clear  
Wind Chill: 39°   Ceiling: Unl
Heat Index: 39°   Visibility: 10mi
Dew Point: 35°   Wind: 3mph
Humidity: 86%   Direction: 260°W
Pressure: 30.23"   Gusts: NA
Location:  35.1476°N, 117.206°W
Report Text: KDAG 190850Z AUTO 26003KT 10SM CLR 04/02 A3023 RMK AO2 SLP233 T00390017 58001
Loading
Personal Weather Stations






























Interactive Weather Map New forecast layout! Learn more

10-Day Weather Forecast

Advertisements
Track Severe Weather on mobile